Data Viewer
| City | State | Eastern Time | Source | Temp | DewPt | RH | BP | 5 Min Precip | Wind Speed | Wind Dir | 5 Min Wind Max | 5 Min Wind Max Dir |
|---|---|---|---|---|---|---|---|---|---|---|---|---|
| Piscataway 1 | NJ | 2026-05-06 08:50 | NJDOT | 68 | 55 | 64 | 15 | |||||
| Piscataway 1 | NJ | 2026-05-07 01:35 | NJDOT | 55 | 54 | 98 | 0 | |||||
| Piscataway 1 | NJ | 2026-05-07 00:15 | NJDOT | 56 | 52 | 86 | 0 | |||||
| Piscataway 1 | NJ | 2026-05-07 00:20 | NJDOT | 56 | 52 | 86 | 1 | |||||
| Piscataway 1 | NJ | 2026-05-07 00:25 | NJDOT | 56 | 52 | 86 | 1 | |||||
| Piscataway 1 | NJ | 2026-05-07 00:30 | NJDOT | 56 | 53 | 87 | 0 | |||||
| Piscataway 1 | NJ | 2026-05-07 00:40 | NJDOT | 56 | 52 | 86 | 4 | |||||
| Piscataway 1 | NJ | 2026-05-07 01:00 | NJDOT | 56 | 52 | 87 | 0 | |||||
| Piscataway 1 | NJ | 2026-05-07 01:05 | NJDOT | 56 | 52 | 87 | 0 | |||||
| Piscataway 1 | NJ | 2026-05-07 01:10 | NJDOT | 56 | 52 | 87 | 0 | |||||
| Piscataway 1 | NJ | 2026-05-07 01:15 | NJDOT | 56 | 52 | 85 | 4 | |||||
| Piscataway 1 | NJ | 2026-05-07 01:20 | NJDOT | 56 | 52 | 87 | 4 | |||||
| Piscataway 1 | NJ | 2026-05-07 01:25 | NJDOT | 56 | 52 | 88 | 0 | |||||
| Piscataway 1 | NJ | 2026-05-07 01:30 | NJDOT | 55 | 54 | 94 | 0 | |||||
| Piscataway 1 | NJ | 2026-05-07 01:40 | NJDOT | 54 | 54 | 99 | 0 | |||||
| Piscataway 1 | NJ | 2026-05-07 00:05 | NJDOT | 56 | 52 | 86 | 3 | |||||
| Piscataway 1 | NJ | 2026-05-07 01:45 | NJDOT | 54 | 53 | 99 | 1 | |||||
| Piscataway 1 | NJ | 2026-05-07 01:50 | NJDOT | 53 | 53 | 98 | 2 | |||||
| Piscataway 1 | NJ | 2026-05-07 02:00 | NJDOT | 53 | 53 | 100 | 3 | |||||
| Piscataway 1 | NJ | 2026-05-07 02:05 | NJDOT | 53 | 51 | 100 | 3 | |||||
| Piscataway 1 | NJ | 2026-05-07 02:10 | NJDOT | 53 | 51 | 100 | 0 | |||||
| Piscataway 1 | NJ | 2026-05-07 02:15 | NJDOT | 52 | 51 | 100 | 0 | |||||
| Piscataway 1 | NJ | 2026-05-07 02:20 | NJDOT | 52 | 50 | 100 | 1 | |||||
| Piscataway 1 | NJ | 2026-05-07 02:25 | NJDOT | 52 | 50 | 100 | 1 | |||||
| Piscataway 1 | NJ | 2026-05-07 02:30 | NJDOT | 51 | 50 | 100 | 0 | |||||
| Piscataway 1 | NJ | 2026-05-07 02:35 | NJDOT | 52 | 50 | 100 | 0 | |||||
| Piscataway 1 | NJ | 2026-05-07 02:40 | NJDOT | 51 | 50 | 100 | 4 | |||||
| Piscataway 1 | NJ | 2026-05-07 02:45 | NJDOT | 51 | 51 | 99 | 4 | |||||
| Piscataway 1 | NJ | 2026-05-07 02:50 | NJDOT | 50 | 50 | 98 | 3 | |||||
| Piscataway 1 | NJ | 2026-05-07 00:10 | NJDOT | 56 | 53 | 88 | 3 | |||||
| Piscataway 1 | NJ | 2026-05-07 00:00 | NJDOT | 57 | 52 | 85 | 0 | |||||
| Piscataway 1 | NJ | 2026-05-07 03:05 | NJDOT | 50 | 49 | 98 | 2 | |||||
| Piscataway 1 | NJ | 2026-05-06 22:30 | NJDOT | 62 | 61 | 95 | 4 | |||||
| Piscataway 1 | NJ | 2026-05-06 21:20 | NJDOT | 67 | 60 | 78 | 3 | |||||
| Piscataway 1 | NJ | 2026-05-06 21:30 | NJDOT | 67 | 60 | 78 | 6 | |||||
| Piscataway 1 | NJ | 2026-05-06 21:35 | NJDOT | 67 | 60 | 78 | 6 | |||||
| Piscataway 1 | NJ | 2026-05-06 21:40 | NJDOT | 67 | 60 | 79 | 6 | |||||
| Piscataway 1 | NJ | 2026-05-06 21:45 | NJDOT | 67 | 61 | 80 | 3 | |||||
| Piscataway 1 | NJ | 2026-05-06 21:50 | NJDOT | 66 | 62 | 86 | 3 | |||||
| Piscataway 1 | NJ | 2026-05-06 22:00 | NJDOT | 64 | 62 | 93 | 0 | |||||
| Piscataway 1 | NJ | 2026-05-06 22:05 | NJDOT | 64 | 62 | 95 | 0 | |||||
| Piscataway 1 | NJ | 2026-05-06 22:10 | NJDOT | 63 | 62 | 96 | 0 | |||||
| Piscataway 1 | NJ | 2026-05-06 22:15 | NJDOT | 63 | 62 | 96 | 0 | |||||
| Piscataway 1 | NJ | 2026-05-06 22:20 | NJDOT | 63 | 62 | 96 | 3 | |||||
| Piscataway 1 | NJ | 2026-05-06 22:25 | NJDOT | 62 | 61 | 96 | 3 | |||||
| Piscataway 1 | NJ | 2026-05-06 22:35 | NJDOT | 62 | 60 | 95 | 9 | |||||
| Piscataway 1 | NJ | 2026-05-06 23:50 | NJDOT | 57 | 53 | 86 | 4 | |||||
| Piscataway 1 | NJ | 2026-05-06 22:40 | NJDOT | 61 | 59 | 94 | 9 | |||||
| Piscataway 1 | NJ | 2026-05-06 22:45 | NJDOT | 60 | 57 | 91 | 5 | |||||
| Piscataway 1 | NJ | 2026-05-06 22:50 | NJDOT | 60 | 57 | 91 | 5 | |||||
| Piscataway 1 | NJ | 2026-05-06 23:00 | NJDOT | 58 | 55 | 87 | 4 | |||||
| Piscataway 1 | NJ | 2026-05-06 23:05 | NJDOT | 58 | 55 | 88 | 0 | |||||
| Piscataway 1 | NJ | 2026-05-06 23:10 | NJDOT | 58 | 55 | 90 | 4 | |||||
| Piscataway 1 | NJ | 2026-05-06 23:15 | NJDOT | 58 | 55 | 90 | 0 | |||||
| Piscataway 1 | NJ | 2026-05-06 23:20 | NJDOT | 57 | 54 | 90 | 0 | |||||
| Piscataway 1 | NJ | 2026-05-06 23:25 | NJDOT | 57 | 54 | 90 | 0 | |||||
| Piscataway 1 | NJ | 2026-05-06 23:30 | NJDOT | 57 | 54 | 88 | 0 | |||||
| Piscataway 1 | NJ | 2026-05-06 23:35 | NJDOT | 57 | 54 | 90 | 0 | |||||
| Piscataway 1 | NJ | 2026-05-06 23:40 | NJDOT | 57 | 53 | 87 | 0 | |||||
| Piscataway 1 | NJ | 2026-05-06 23:45 | NJDOT | 57 | 53 | 88 | 1 | |||||
| Piscataway 1 | NJ | 2026-05-07 03:00 | NJDOT | 50 | 49 | 98 | 2 | |||||
| Piscataway 1 | NJ | 2026-05-07 03:10 | NJDOT | 50 | 49 | 98 | 2 | |||||
| Piscataway 1 | NJ | 2026-05-06 21:00 | NJDOT | 67 | 60 | 78 | 6 | |||||
| Piscataway 1 | NJ | 2026-05-07 07:25 | NJDOT | 50 | 44 | 100 | 0 | |||||
| Piscataway 1 | NJ | 2026-05-07 06:10 | NJDOT | 49 | 44 | 100 | 0 | |||||
| Piscataway 1 | NJ | 2026-05-07 06:15 | NJDOT | 50 | 44 | 81 | 0 | |||||
| Piscataway 1 | NJ | 2026-05-07 06:20 | NJDOT | 50 | 44 | 81 | 0 | |||||
| Piscataway 1 | NJ | 2026-05-07 06:25 | NJDOT | 50 | 44 | 81 | 0 | |||||
| Piscataway 1 | NJ | 2026-05-07 06:30 | NJDOT | 50 | 44 | 81 | 0 | |||||
| Piscataway 1 | NJ | 2026-05-07 06:40 | NJDOT | 50 | 44 | 100 | 0 | |||||
| Piscataway 1 | NJ | 2026-05-07 06:45 | NJDOT | 50 | 44 | 100 | 0 | |||||
| Piscataway 1 | NJ | 2026-05-07 07:00 | NJDOT | 50 | 44 | 100 | 0 | |||||
| Piscataway 1 | NJ | 2026-05-07 07:05 | NJDOT | 50 | 44 | 100 | 0 | |||||
| Piscataway 1 | NJ | 2026-05-07 07:10 | NJDOT | 50 | 44 | 100 | 0 | |||||
| Piscataway 1 | NJ | 2026-05-07 07:15 | NJDOT | 50 | 44 | 100 | 0 | |||||
| Piscataway 1 | NJ | 2026-05-07 07:20 | NJDOT | 50 | 44 | 100 | 0 | |||||
| Piscataway 1 | NJ | 2026-05-07 07:30 | NJDOT | 50 | 44 | 100 | 0 | |||||
| Piscataway 1 | NJ | 2026-05-07 06:00 | NJDOT | 49 | 44 | 82 | 0 | |||||
| Piscataway 1 | NJ | 2026-05-07 07:35 | NJDOT | 50 | 44 | 100 | 0 | |||||
| Piscataway 1 | NJ | 2026-05-07 07:40 | NJDOT | 50 | 44 | 99 | 0 | |||||
| Piscataway 1 | NJ | 2026-05-07 07:45 | NJDOT | 50 | 45 | 98 | 0 | |||||
| Piscataway 1 | NJ | 2026-05-07 07:50 | NJDOT | 50 | 43 | 97 | 0 | |||||
| Piscataway 1 | NJ | 2026-05-07 08:00 | NJDOT | 50 | 43 | 96 | 0 | |||||
| Piscataway 1 | NJ | 2026-05-07 08:05 | NJDOT | 50 | 43 | 97 | 0 | |||||
| Piscataway 1 | NJ | 2026-05-07 08:10 | NJDOT | 50 | 43 | 96 | 0 | |||||
| Piscataway 1 | NJ | 2026-05-07 08:15 | NJDOT | 50 | 43 | 95 | 0 | |||||
| Piscataway 1 | NJ | 2026-05-07 08:20 | NJDOT | 50 | 43 | 96 | 0 | |||||
| Piscataway 1 | NJ | 2026-05-07 08:25 | NJDOT | 50 | 43 | 94 | 0 | |||||
| Piscataway 1 | NJ | 2026-05-07 08:30 | NJDOT | 50 | 43 | 95 | 0 | |||||
| Piscataway 1 | NJ | 2026-05-07 08:35 | NJDOT | 50 | 43 | 93 | 0 | |||||
| Piscataway 1 | NJ | 2026-05-07 08:40 | NJDOT | 50 | 43 | 88 | 0 | |||||
| Piscataway 1 | NJ | 2026-05-07 06:05 | NJDOT | 50 | 44 | 81 | 0 | |||||
| Piscataway 1 | NJ | 2026-05-07 05:50 | NJDOT | 49 | 44 | 82 | 0 | |||||
| Piscataway 1 | NJ | 2026-05-07 03:15 | NJDOT | 50 | 49 | 98 | 0 | |||||
| Piscataway 1 | NJ | 2026-05-07 04:25 | NJDOT | 50 | 48 | 100 | 0 | |||||
| Piscataway 1 | NJ | 2026-05-07 03:20 | NJDOT | 50 | 49 | 98 | 0 | |||||
| Piscataway 1 | NJ | 2026-05-07 03:25 | NJDOT | 50 | 49 | 99 | 1 | |||||
| Piscataway 1 | NJ | 2026-05-07 03:30 | NJDOT | 50 | 49 | 99 | 1 | |||||
| Piscataway 1 | NJ | 2026-05-07 03:35 | NJDOT | 50 | 49 | 99 | 0 | |||||
| Piscataway 1 | NJ | 2026-05-07 03:40 | NJDOT | 49 | 49 | 98 | 0 | |||||
| Piscataway 1 | NJ | 2026-05-07 03:45 | NJDOT | 49 | 49 | 98 | 1 | |||||
| Piscataway 1 | NJ | 2026-05-07 03:50 | NJDOT | 49 | 49 | 98 | 1 | |||||
| Piscataway 1 | NJ | 2026-05-07 04:00 | NJDOT | 49 | 49 | 99 | 0 | |||||
| Piscataway 1 | NJ | 2026-05-07 04:05 | NJDOT | 49 | 49 | 99 | 0 | |||||
| Piscataway 1 | NJ | 2026-05-07 04:10 | NJDOT | 49 | 49 | 100 | 0 | |||||
| Piscataway 1 | NJ | 2026-05-07 04:15 | NJDOT | 49 | 48 | 100 | 0 | |||||
| Piscataway 1 | NJ | 2026-05-07 04:20 | NJDOT | 50 | 48 | 100 | 0 | |||||
| Piscataway 1 | NJ | 2026-05-07 04:30 | NJDOT | 50 | 48 | 100 | 0 | |||||
| Piscataway 1 | NJ | 2026-05-07 05:45 | NJDOT | 49 | 45 | 100 | 0 | |||||
| Piscataway 1 | NJ | 2026-05-07 04:35 | NJDOT | 50 | 48 | 100 | 0 | |||||
| Piscataway 1 | NJ | 2026-05-07 04:40 | NJDOT | 50 | 48 | 100 | 0 | |||||
| Piscataway 1 | NJ | 2026-05-07 04:45 | NJDOT | 49 | 48 | 100 | 0 | |||||
| Piscataway 1 | NJ | 2026-05-07 04:50 | NJDOT | 50 | 48 | 94 | 0 | |||||
| Piscataway 1 | NJ | 2026-05-07 05:00 | NJDOT | 50 | 45 | 84 | 0 | |||||
| Piscataway 1 | NJ | 2026-05-07 05:05 | NJDOT | 50 | 45 | 84 | 0 | |||||
| Piscataway 1 | NJ | 2026-05-07 05:10 | NJDOT | 50 | 45 | 84 | 0 | |||||
| Piscataway 1 | NJ | 2026-05-07 05:15 | NJDOT | 50 | 45 | 84 | 0 | |||||
| Piscataway 1 | NJ | 2026-05-07 05:20 | NJDOT | 49 | 45 | 85 | 0 | |||||
| Piscataway 1 | NJ | 2026-05-07 05:25 | NJDOT | 49 | 45 | 100 | 0 | |||||
| Piscataway 1 | NJ | 2026-05-07 05:30 | NJDOT | 49 | 45 | 100 | 0 | |||||
| Piscataway 1 | NJ | 2026-05-07 05:35 | NJDOT | 49 | 45 | 100 | 0 | |||||
| Piscataway 1 | NJ | 2026-05-07 05:40 | NJDOT | 49 | 45 | 100 | 0 | |||||
| Piscataway 1 | NJ | 2026-05-06 21:15 | NJDOT | 67 | 60 | 78 | 2 | |||||
| Piscataway 1 | NJ | 2026-05-06 20:55 | NJDOT | 67 | 60 | 78 | 6 | |||||
| Piscataway 1 | NJ | 2026-05-06 09:00 | NJDOT | 68 | 55 | 63 | 19 | |||||
| Piscataway 1 | NJ | 2026-05-06 13:20 | NJDOT | 65 | 61 | 86 | 5 | |||||
| Piscataway 1 | NJ | 2026-05-06 12:00 | NJDOT | 66 | 58 | 74 | 10 | |||||
| Piscataway 1 | NJ | 2026-05-06 12:05 | NJDOT | 65 | 58 | 78 | 10 | |||||
| Piscataway 1 | NJ | 2026-05-06 12:10 | NJDOT | 65 | 59 | 80 | 13 | |||||
| Piscataway 1 | NJ | 2026-05-06 12:15 | NJDOT | 65 | 58 | 80 | 13 | |||||
| Piscataway 1 | NJ | 2026-05-06 12:20 | NJDOT | 65 | 59 | 82 | 9 | |||||
| Piscataway 1 | NJ | 2026-05-06 12:25 | NJDOT | 64 | 59 | 83 | 9 | |||||
| Piscataway 1 | NJ | 2026-05-06 12:30 | NJDOT | 64 | 59 | 83 | 8 | |||||
| Piscataway 1 | NJ | 2026-05-06 12:35 | NJDOT | 64 | 60 | 86 | 8 | |||||
| Piscataway 1 | NJ | 2026-05-06 13:00 | NJDOT | 64 | 61 | 89 | 6 | |||||
| Piscataway 1 | NJ | 2026-05-06 13:05 | NJDOT | 64 | 61 | 89 | 6 | |||||
| Piscataway 1 | NJ | 2026-05-06 13:10 | NJDOT | 65 | 61 | 89 | 2 | |||||
| Piscataway 1 | NJ | 2026-05-06 13:15 | NJDOT | 65 | 62 | 88 | 5 | |||||
| Piscataway 1 | NJ | 2026-05-06 13:25 | NJDOT | 65 | 61 | 86 | 5 | |||||
| Piscataway 1 | NJ | 2026-05-06 11:45 | NJDOT | 68 | 56 | 66 | 15 | |||||
| Piscataway 1 | NJ | 2026-05-06 13:30 | NJDOT | 65 | 61 | 85 | 6 | |||||
| Piscataway 1 | NJ | 2026-05-06 13:35 | NJDOT | 65 | 60 | 83 | 8 | |||||
| Piscataway 1 | NJ | 2026-05-06 13:40 | NJDOT | 65 | 61 | 86 | 8 | |||||
| Piscataway 1 | NJ | 2026-05-06 13:45 | NJDOT | 65 | 61 | 86 | 2 | |||||
| Piscataway 1 | NJ | 2026-05-06 13:50 | NJDOT | 65 | 61 | 86 | 4 | |||||
| Piscataway 1 | NJ | 2026-05-06 14:00 | NJDOT | 65 | 60 | 83 | 9 | |||||
| Piscataway 1 | NJ | 2026-05-06 14:05 | NJDOT | 66 | 59 | 78 | 13 | |||||
| Piscataway 1 | NJ | 2026-05-06 14:10 | NJDOT | 66 | 60 | 80 | 13 | |||||
| Piscataway 1 | NJ | 2026-05-06 14:15 | NJDOT | 65 | 59 | 81 | 13 | |||||
| Piscataway 1 | NJ | 2026-05-06 14:20 | NJDOT | 64 | 60 | 84 | 15 | |||||
| Piscataway 1 | NJ | 2026-05-06 14:25 | NJDOT | 64 | 60 | 86 | 15 | |||||
| Piscataway 1 | NJ | 2026-05-06 14:30 | NJDOT | 64 | 60 | 89 | 15 | |||||
| Piscataway 1 | NJ | 2026-05-06 14:35 | NJDOT | 64 | 60 | 89 | 10 | |||||
| Piscataway 1 | NJ | 2026-05-06 11:50 | NJDOT | 68 | 57 | 67 | 15 | |||||
| Piscataway 1 | NJ | 2026-05-06 11:40 | NJDOT | 69 | 57 | 65 | 13 | |||||
| Piscataway 1 | NJ | 2026-05-06 14:45 | NJDOT | 63 | 60 | 89 | 13 | |||||
| Piscataway 1 | NJ | 2026-05-06 10:10 | NJDOT | 69 | 55 | 60 | 12 | |||||
| Piscataway 1 | NJ | 2026-05-06 09:05 | NJDOT | 68 | 55 | 63 | 19 | |||||
| Piscataway 1 | NJ | 2026-05-06 09:10 | NJDOT | 68 | 55 | 63 | 13 | |||||
| Piscataway 1 | NJ | 2026-05-06 09:15 | NJDOT | 69 | 56 | 63 | 18 | |||||
| Piscataway 1 | NJ | 2026-05-06 09:20 | NJDOT | 69 | 55 | 62 | 20 | |||||
| Piscataway 1 | NJ | 2026-05-06 09:25 | NJDOT | 69 | 55 | 62 | 20 | |||||
| Piscataway 1 | NJ | 2026-05-06 09:30 | NJDOT | 69 | 55 | 61 | 15 | |||||
| Piscataway 1 | NJ | 2026-05-06 09:35 | NJDOT | 69 | 56 | 62 | 15 | |||||
| Piscataway 1 | NJ | 2026-05-06 09:40 | NJDOT | 69 | 56 | 61 | 12 | |||||
| Piscataway 1 | NJ | 2026-05-06 09:45 | NJDOT | 69 | 56 | 62 | 12 | |||||
| Piscataway 1 | NJ | 2026-05-06 09:50 | NJDOT | 69 | 55 | 61 | 17 | |||||
| Piscataway 1 | NJ | 2026-05-06 10:00 | NJDOT | 69 | 55 | 61 | 16 | |||||
| Piscataway 1 | NJ | 2026-05-06 10:05 | NJDOT | 69 | 56 | 61 | 11 | |||||
| Piscataway 1 | NJ | 2026-05-06 10:15 | NJDOT | 70 | 55 | 59 | 15 | |||||
| Piscataway 1 | NJ | 2026-05-06 11:35 | NJDOT | 69 | 56 | 63 | 13 | |||||
| Piscataway 1 | NJ | 2026-05-06 10:20 | NJDOT | 70 | 55 | 59 | 16 | |||||
| Piscataway 1 | NJ | 2026-05-06 10:25 | NJDOT | 70 | 55 | 59 | 16 | |||||
| Piscataway 1 | NJ | 2026-05-06 10:30 | NJDOT | 70 | 56 | 60 | 13 | |||||
| Piscataway 1 | NJ | 2026-05-06 10:35 | NJDOT | 70 | 55 | 58 | 16 | |||||
| Piscataway 1 | NJ | 2026-05-06 10:40 | NJDOT | 70 | 55 | 58 | 19 | |||||
| Piscataway 1 | NJ | 2026-05-06 10:45 | NJDOT | 70 | 55 | 60 | 20 | |||||
| Piscataway 1 | NJ | 2026-05-06 11:00 | NJDOT | 69 | 54 | 59 | 16 | |||||
| Piscataway 1 | NJ | 2026-05-06 11:05 | NJDOT | 69 | 55 | 60 | 16 | |||||
| Piscataway 1 | NJ | 2026-05-06 11:10 | NJDOT | 69 | 55 | 61 | 12 | |||||
| Piscataway 1 | NJ | 2026-05-06 11:15 | NJDOT | 69 | 56 | 63 | 12 | |||||
| Piscataway 1 | NJ | 2026-05-06 11:20 | NJDOT | 69 | 56 | 63 | 10 | |||||
| Piscataway 1 | NJ | 2026-05-06 11:25 | NJDOT | 69 | 55 | 60 | 13 | |||||
| Piscataway 1 | NJ | 2026-05-06 11:30 | NJDOT | 69 | 57 | 64 | 13 | |||||
| Piscataway 1 | NJ | 2026-05-06 14:40 | NJDOT | 64 | 60 | 90 | 13 | |||||
| Piscataway 1 | NJ | 2026-05-06 14:50 | NJDOT | 63 | 60 | 90 | 12 | |||||
| Piscataway 1 | NJ | 2026-05-06 20:50 | NJDOT | 67 | 60 | 78 | 6 | |||||
| Piscataway 1 | NJ | 2026-05-06 19:30 | NJDOT | 67 | 60 | 77 | 4 | |||||
| Piscataway 1 | NJ | 2026-05-06 18:05 | NJDOT | 67 | 60 | 78 | 6 | |||||
| Piscataway 1 | NJ | 2026-05-06 18:10 | NJDOT | 67 | 60 | 79 | 6 | |||||
| Piscataway 1 | NJ | 2026-05-06 18:15 | NJDOT | 67 | 60 | 79 | 4 | |||||
| Piscataway 1 | NJ | 2026-05-06 18:20 | NJDOT | 67 | 60 | 78 | 3 | |||||
| Piscataway 1 | NJ | 2026-05-06 18:25 | NJDOT | 67 | 60 | 79 | 4 | |||||
| Piscataway 1 | NJ | 2026-05-06 18:30 | NJDOT | 67 | 60 | 78 | 4 | |||||
| Piscataway 1 | NJ | 2026-05-06 19:00 | NJDOT | 67 | 61 | 78 | 4 | |||||
| Piscataway 1 | NJ | 2026-05-06 19:05 | NJDOT | 68 | 60 | 77 | 4 | |||||
| Piscataway 1 | NJ | 2026-05-06 19:10 | NJDOT | 68 | 60 | 77 | 4 | |||||
| Piscataway 1 | NJ | 2026-05-06 19:15 | NJDOT | 67 | 60 | 77 | 4 | |||||
| Piscataway 1 | NJ | 2026-05-06 19:20 | NJDOT | 67 | 60 | 77 | 4 | |||||
| Piscataway 1 | NJ | 2026-05-06 19:25 | NJDOT | 68 | 60 | 77 | 4 | |||||
| Piscataway 1 | NJ | 2026-05-06 19:35 | NJDOT | 68 | 60 | 77 | 5 | |||||
| Piscataway 1 | NJ | 2026-05-06 17:50 | NJDOT | 67 | 60 | 79 | 9 | |||||
| Piscataway 1 | NJ | 2026-05-06 19:40 | NJDOT | 67 | 60 | 77 | 5 | |||||
| Piscataway 1 | NJ | 2026-05-06 19:45 | NJDOT | 67 | 60 | 78 | 3 | |||||
| Piscataway 1 | NJ | 2026-05-06 19:50 | NJDOT | 67 | 60 | 77 | 4 | |||||
| Piscataway 1 | NJ | 2026-05-06 20:00 | NJDOT | 67 | 60 | 78 | 3 | |||||
| Piscataway 1 | NJ | 2026-05-06 20:05 | NJDOT | 67 | 60 | 78 | 0 | |||||
| Piscataway 1 | NJ | 2026-05-06 20:10 | NJDOT | 67 | 60 | 78 | 0 | |||||
| Piscataway 1 | NJ | 2026-05-06 20:15 | NJDOT | 67 | 60 | 77 | 0 | |||||
| Piscataway 1 | NJ | 2026-05-06 20:20 | NJDOT | 67 | 60 | 78 | 2 | |||||
| Piscataway 1 | NJ | 2026-05-06 20:25 | NJDOT | 67 | 60 | 78 | 2 | |||||
| Piscataway 1 | NJ | 2026-05-06 20:30 | NJDOT | 67 | 60 | 79 | 0 | |||||
| Piscataway 1 | NJ | 2026-05-06 20:35 | NJDOT | 67 | 60 | 78 | 0 | |||||
| Piscataway 1 | NJ | 2026-05-06 20:40 | NJDOT | 67 | 60 | 78 | 0 | |||||
| Piscataway 1 | NJ | 2026-05-06 20:45 | NJDOT | 67 | 60 | 78 | 6 | |||||
| Piscataway 1 | NJ | 2026-05-06 18:00 | NJDOT | 67 | 60 | 78 | 8 | |||||
| Piscataway 1 | NJ | 2026-05-06 17:45 | NJDOT | 67 | 60 | 79 | 6 | |||||
| Piscataway 1 | NJ | 2026-05-06 15:00 | NJDOT | 63 | 61 | 91 | 9 | |||||
| Piscataway 1 | NJ | 2026-05-06 16:15 | NJDOT | 65 | 60 | 85 | 6 | |||||
| Piscataway 1 | NJ | 2026-05-06 15:05 | NJDOT | 63 | 60 | 90 | 8 | |||||
| Piscataway 1 | NJ | 2026-05-06 15:10 | NJDOT | 63 | 61 | 91 | 7 | |||||
| Piscataway 1 | NJ | 2026-05-06 15:15 | NJDOT | 64 | 60 | 90 | 6 | |||||
| Piscataway 1 | NJ | 2026-05-06 15:20 | NJDOT | 64 | 60 | 88 | 7 | |||||
| Piscataway 1 | NJ | 2026-05-06 15:25 | NJDOT | 64 | 60 | 85 | 8 | |||||
| Piscataway 1 | NJ | 2026-05-06 15:30 | NJDOT | 65 | 60 | 84 | 14 | |||||
| Piscataway 1 | NJ | 2026-05-06 15:35 | NJDOT | 64 | 60 | 85 | 14 | |||||
| Piscataway 1 | NJ | 2026-05-06 15:40 | NJDOT | 64 | 60 | 87 | 14 | |||||
| Piscataway 1 | NJ | 2026-05-06 15:45 | NJDOT | 64 | 60 | 87 | 13 | |||||
| Piscataway 1 | NJ | 2026-05-06 15:50 | NJDOT | 64 | 60 | 87 | 13 | |||||
| Piscataway 1 | NJ | 2026-05-06 16:00 | NJDOT | 64 | 60 | 85 | 12 | |||||
| Piscataway 1 | NJ | 2026-05-06 16:05 | NJDOT | 65 | 60 | 85 | 12 | |||||
| Piscataway 1 | NJ | 2026-05-06 16:10 | NJDOT | 65 | 61 | 86 | 7 | |||||
| Piscataway 1 | NJ | 2026-05-06 16:20 | NJDOT | 65 | 60 | 84 | 6 | |||||
| Piscataway 1 | NJ | 2026-05-06 17:40 | NJDOT | 66 | 60 | 79 | 9 | |||||
| Piscataway 1 | NJ | 2026-05-06 16:25 | NJDOT | 65 | 60 | 83 | 10 | |||||
| Piscataway 1 | NJ | 2026-05-06 16:35 | NJDOT | 66 | 60 | 81 | 7 | |||||
| Piscataway 1 | NJ | 2026-05-06 16:40 | NJDOT | 66 | 60 | 80 | 7 | |||||
| Piscataway 1 | NJ | 2026-05-06 16:45 | NJDOT | 66 | 61 | 81 | 5 | |||||
| Piscataway 1 | NJ | 2026-05-06 16:50 | NJDOT | 67 | 60 | 81 | 11 | |||||
| Piscataway 1 | NJ | 2026-05-06 17:00 | NJDOT | 66 | 60 | 80 | 12 | |||||
| Piscataway 1 | NJ | 2026-05-06 17:05 | NJDOT | 66 | 60 | 80 | 7 | |||||
| Piscataway 1 | NJ | 2026-05-06 17:10 | NJDOT | 66 | 60 | 80 | 8 | |||||
| Piscataway 1 | NJ | 2026-05-06 17:15 | NJDOT | 66 | 60 | 79 | 8 | |||||
| Piscataway 1 | NJ | 2026-05-06 17:20 | NJDOT | 66 | 60 | 79 | 9 | |||||
| Piscataway 1 | NJ | 2026-05-06 17:25 | NJDOT | 66 | 60 | 79 | 9 | |||||
| Piscataway 1 | NJ | 2026-05-06 17:30 | NJDOT | 66 | 60 | 79 | 8 | |||||
| Piscataway 1 | NJ | 2026-05-06 17:35 | NJDOT | 66 | 60 | 79 | 9 | |||||
| Piscataway 1 | NJ | 2026-05-07 08:45 | NJDOT | 51 | 44 | 87 | 0 |
data collection created in 0.034252166748047 (queried in 0.008761) rendered in: 0.00033092498779297

